Time;durP1;ratioP1;P1;durP2;ratioP2;P2;SDS_P1;SDS_P2;PMS_P1;PMS_P2;Temp;Humidity;BMP_temperature;BMP_pressure;BME280_temperature;BME280_humidity;BME280_pressure;Samples;Min_cycle;Max_cycle;Signal;HPM_P1;HPM_P2
2022/03/16 00:01:09;;;;;;;64.35;9.73;;;;;;;;;;6217701;28;20117;-81
2022/03/16 00:04:10;;;;;;;47.55;9.07;;;;;;;;;;6220362;28;20038;-81
2022/03/16 00:07:12;;;;;;;78.82;9.88;;;;;;;;;;6219321;28;20038;-81
2022/03/16 00:10:14;;;;;;;34.50;7.72;;;;;;;;;;6218051;28;20057;-81
2022/03/16 00:13:16;;;;;;;41.47;9.02;;;;;;;;;;6230612;28;20125;-81
2022/03/16 00:16:17;;;;;;;67.85;9.70;;;;;;;;;;6242945;28;20091;-82
2022/03/16 00:19:19;;;;;;;71.45;9.55;;;;;;;;;;6245049;28;20048;-80
2022/03/16 00:22:20;;;;;;;57.60;8.65;;;;;;;;;;6238012;28;20041;-82
2022/03/16 00:25:23;;;;;;;35.10;7.57;;;;;;;;;;6221154;28;20070;-82
2022/03/16 00:28:25;;;;;;;47.03;8.35;;;;;;;;;;6231028;28;20411;-80
2022/03/16 00:31:27;;;;;;;46.33;8.73;;;;;;;;;;6247221;28;20041;-81
2022/03/16 00:34:29;;;;;;;38.05;8.48;;;;;;;;;;6231203;28;20098;-81
2022/03/16 00:37:32;;;;;;;40.15;7.93;;;;;;;;;;6230275;28;20061;-81
2022/03/16 00:40:34;;;;;;;39.30;8.38;;;;;;;;;;6255222;28;20419;-82
2022/03/16 00:43:36;;;;;;;39.70;8.60;;;;;;;;;;6222037;28;20056;-81
2022/03/16 00:46:38;;;;;;;38.33;8.43;;;;;;;;;;6233819;28;20107;-80
2022/03/16 00:49:40;;;;;;;51.85;9.65;;;;;;;;;;6247461;28;20120;-81
2022/03/16 00:52:43;;;;;;;51.22;11.77;;;;;;;;;;6245830;28;20056;-81
2022/03/16 00:55:45;;;;;;;58.83;12.68;;;;;;;;;;6238119;28;20049;-79
2022/03/16 00:58:47;;;;;;;38.72;9.98;;;;;;;;;;6223386;28;20076;-81
2022/03/16 01:01:49;;;;;;;89.50;10.70;;;;;;;;;;6255591;28;20049;-82
2022/03/16 01:04:50;;;;;;;83.25;10.00;;;;;;;;;;6224120;28;20042;-82
2022/03/16 01:07:52;;;;;;;78.75;9.02;;;;;;;;;;6229611;28;20123;-82
2022/03/16 01:10:55;;;;;;;72.90;9.93;;;;;;;;;;6279303;28;20041;-81
2022/03/16 01:13:58;;;;;;;86.63;9.25;;;;;;;;;;6254946;28;20042;-79
2022/03/16 01:17:01;;;;;;;51.67;8.35;;;;;;;;;;6248742;28;20045;-79
2022/03/16 01:20:06;;;;;;;80.55;9.15;;;;;;;;;;6247168;28;20053;-80
2022/03/16 01:23:08;;;;;;;61.67;7.80;;;;;;;;;;6257207;28;20053;-82
2022/03/16 01:26:09;;;;;;;45.85;8.63;;;;;;;;;;6254698;28;20151;-81
2022/03/16 01:29:11;;;;;;;76.93;8.10;;;;;;;;;;6221938;28;20113;-80
2022/03/16 01:32:13;;;;;;;56.85;8.32;;;;;;;;;;6223159;28;20050;-81
2022/03/16 01:35:15;;;;;;;68.00;9.52;;;;;;;;;;6222481;28;20225;-82
2022/03/16 01:38:17;;;;;;;89.80;9.05;;;;;;;;;;6223271;28;20041;-82
2022/03/16 01:41:19;;;;;;;72.90;8.27;;;;;;;;;;6222849;28;20125;-82
2022/03/16 01:44:47;;;;;;;61.65;8.27;;;;;;;;;;6240637;28;20073;-82
2022/03/16 01:47:49;;;;;;;52.42;7.90;;;;;;;;;;6240917;28;20046;-80
2022/03/16 01:50:54;;;;;;;51.50;7.88;;;;;;;;;;6229154;28;20127;-82
2022/03/16 01:53:56;;;;;;;79.28;10.32;;;;;;;;;;6238102;28;20462;-81
2022/03/16 01:56:58;;;;;;;76.50;8.85;;;;;;;;;;6219849;28;20046;-83
2022/03/16 02:00:04;;;;;;;26.92;6.85;;;;;;;;;;6221153;28;20046;-82
2022/03/16 02:03:12;;;;;;;38.78;6.90;;;;;;;;;;6222484;28;20412;-80
2022/03/16 02:06:14;;;;;;;18.75;5.43;;;;;;;;;;6226354;28;20049;-81
2022/03/16 02:09:16;;;;;;;51.63;7.53;;;;;;;;;;6247074;28;20052;-82
2022/03/16 02:12:17;;;;;;;87.43;8.82;;;;;;;;;;6241132;28;20161;-82
2022/03/16 02:15:21;;;;;;;85.15;8.82;;;;;;;;;;6220338;28;20052;-81
2022/03/16 02:18:22;;;;;;;;;;;;;;;;;;6222225;28;20735;-82
2022/03/16 02:21:25;;;;;;;42.28;7.15;;;;;;;;;;6231043;28;19931;-81
2022/03/16 02:24:29;;;;;;;64.53;8.15;;;;;;;;;;6245359;28;20131;-83
2022/03/16 02:27:32;;;;;;;77.15;7.70;;;;;;;;;;6251550;28;20060;-83
2022/03/16 02:30:33;;;;;;;119.47;8.77;;;;;;;;;;6243343;28;20115;-82
2022/03/16 02:33:35;;;;;;;68.30;7.82;;;;;;;;;;6243481;28;20103;-81
2022/03/16 02:36:37;;;;;;;34.50;5.93;;;;;;;;;;6243526;28;20033;-82
2022/03/16 02:39:38;;;;;;;36.60;6.35;;;;;;;;;;6229354;28;20106;-82
2022/03/16 02:42:41;;;;;;;46.92;8.50;;;;;;;;;;6240294;28;20037;-81
2022/03/16 02:45:43;;;;;;;33.17;6.97;;;;;;;;;;6247171;28;20053;-81
2022/03/16 02:48:44;;;;;;;34.30;6.78;;;;;;;;;;6225192;28;20049;-81
2022/03/16 02:51:46;;;;;;;46.10;7.25;;;;;;;;;;6224856;28;20077;-82
2022/03/16 02:54:49;;;;;;;64.93;7.47;;;;;;;;;;6224900;28;20109;-82
2022/03/16 02:57:50;;;;;;;35.30;6.68;;;;;;;;;;6239322;28;20109;-81
2022/03/16 03:00:52;;;;;;;27.35;6.57;;;;;;;;;;6253009;28;20454;-81
2022/03/16 03:03:54;;;;;;;28.42;6.35;;;;;;;;;;6218866;28;20048;-81
2022/03/16 03:06:57;;;;;;;32.50;6.45;;;;;;;;;;6220908;28;20086;-82
2022/03/16 03:09:59;;;;;;;43.85;6.85;;;;;;;;;;6219178;28;20124;-79
2022/03/16 03:13:01;;;;;;;26.08;5.97;;;;;;;;;;6242210;28;20097;-79
2022/03/16 03:16:03;;;;;;;27.42;6.57;;;;;;;;;;6241820;28;20045;-82
2022/03/16 03:19:04;;;;;;;28.95;5.40;;;;;;;;;;6244864;28;20042;-81
2022/03/16 03:22:06;;;;;;;32.58;5.68;;;;;;;;;;6243518;28;20065;-81
2022/03/16 03:25:14;;;;;;;19.25;5.28;;;;;;;;;;6244249;28;20092;-81
2022/03/16 03:28:16;;;;;;;15.45;4.70;;;;;;;;;;6232358;28;20046;-80
2022/03/16 03:31:18;;;;;;;20.88;4.70;;;;;;;;;;6219488;28;20041;-82
2022/03/16 03:34:19;;;;;;;16.30;4.93;;;;;;;;;;6219877;28;20049;-81
2022/03/16 03:37:22;;;;;;;29.75;5.25;;;;;;;;;;6241656;28;20538;-81
2022/03/16 03:40:24;;;;;;;87.45;7.82;;;;;;;;;;6244891;28;20061;-81
2022/03/16 03:43:25;;;;;;;15.38;4.72;;;;;;;;;;6246374;28;20057;-80
2022/03/16 03:46:27;;;;;;;52.45;6.07;;;;;;;;;;6217457;28;20128;-82
2022/03/16 03:49:29;;;;;;;37.67;5.82;;;;;;;;;;6220586;28;20058;-81
2022/03/16 03:52:31;;;;;;;93.43;7.93;;;;;;;;;;6218779;28;20091;-81
2022/03/16 03:55:32;;;;;;;66.95;6.20;;;;;;;;;;6202215;28;20125;-81
2022/03/16 03:58:35;;;;;;;93.38;8.32;;;;;;;;;;6220800;28;20119;-80
2022/03/16 04:01:37;;;;;;;115.80;8.30;;;;;;;;;;6220135;28;20050;-81
2022/03/16 04:04:39;;;;;;;122.47;9.43;;;;;;;;;;6220306;28;20056;-81
2022/03/16 04:07:40;;;;;;;52.45;6.70;;;;;;;;;;6225083;28;20045;-80
2022/03/16 04:10:42;;;;;;;22.13;5.93;;;;;;;;;;6255559;28;20050;-82
2022/03/16 04:13:44;;;;;;;69.57;8.00;;;;;;;;;;6225283;28;20061;-80
2022/03/16 04:16:45;;;;;;;53.20;7.70;;;;;;;;;;6222831;28;20084;-82
2022/03/16 04:19:48;;;;;;;84.70;8.43;;;;;;;;;;6223013;28;20050;-83
2022/03/16 04:22:49;;;;;;;78.30;8.20;;;;;;;;;;6219358;28;20184;-80
2022/03/16 04:25:51;;;;;;;64.78;6.55;;;;;;;;;;6227605;28;20105;-80
2022/03/16 04:28:53;;;;;;;51.53;6.28;;;;;;;;;;6239266;28;20049;-82
2022/03/16 04:31:54;;;;;;;71.70;8.20;;;;;;;;;;6247373;28;20179;-82
2022/03/16 04:34:56;;;;;;;66.65;7.03;;;;;;;;;;6249005;28;20133;-81
2022/03/16 04:37:58;;;;;;;50.40;6.13;;;;;;;;;;6234061;28;20061;-81
2022/03/16 04:41:03;;;;;;;52.42;7.00;;;;;;;;;;6239264;28;20047;-81
2022/03/16 04:44:04;;;;;;;41.15;5.80;;;;;;;;;;6225021;28;20705;-79
2022/03/16 04:47:06;;;;;;;51.83;6.32;;;;;;;;;;6246449;28;20128;-80
2022/03/16 04:50:08;;;;;;;92.38;8.52;;;;;;;;;;6245403;28;20128;-80
2022/03/16 04:53:10;;;;;;;86.57;7.63;;;;;;;;;;6227925;28;20049;-82
2022/03/16 04:56:12;;;;;;;26.10;6.18;;;;;;;;;;6225617;28;20718;-82
2022/03/16 04:59:14;;;;;;;25.60;6.28;;;;;;;;;;6230168;28;20518;-81
2022/03/16 05:02:16;;;;;;;36.17;6.20;;;;;;;;;;6221235;28;20348;-83
2022/03/16 05:05:17;;;;;;;83.65;8.00;;;;;;;;;;6242329;28;20068;-82
2022/03/16 05:08:19;;;;;;;37.63;6.50;;;;;;;;;;6244787;28;20042;-82
2022/03/16 05:11:22;;;;;;;42.95;5.90;;;;;;;;;;6248600;28;20113;-83
2022/03/16 05:14:24;;;;;;;25.10;6.00;;;;;;;;;;6262995;28;20068;-82
2022/03/16 05:17:26;;;;;;;62.75;7.25;;;;;;;;;;6247461;28;20042;-84
2022/03/16 05:20:28;;;;;;;72.53;8.32;;;;;;;;;;6248196;28;20499;-81
2022/03/16 05:23:30;;;;;;;63.97;7.53;;;;;;;;;;6234306;28;20060;-81
2022/03/16 05:26:32;;;;;;;62.17;8.40;;;;;;;;;;6255192;28;20423;-82
2022/03/16 05:29:33;;;;;;;106.38;11.20;;;;;;;;;;6224159;28;20269;-80
2022/03/16 05:32:36;;;;;;;48.70;8.52;;;;;;;;;;6222944;28;20180;-81
2022/03/16 05:35:40;;;;;;;70.97;9.88;;;;;;;;;;6223415;28;20077;-80
2022/03/16 05:38:41;;;;;;;51.03;9.80;;;;;;;;;;6237497;28;20649;-82
2022/03/16 05:41:43;;;;;;;46.95;8.98;;;;;;;;;;6222292;28;20046;-81
2022/03/16 05:44:45;;;;;;;57.95;8.65;;;;;;;;;;6223167;28;20129;-81
2022/03/16 05:47:46;;;;;;;32.67;8.07;;;;;;;;;;6225567;28;20048;-79
2022/03/16 05:50:48;;;;;;;49.67;9.48;;;;;;;;;;6239503;28;20472;-81
2022/03/16 05:53:50;;;;;;;29.05;8.38;;;;;;;;;;6225134;28;20065;-80
2022/03/16 05:56:51;;;;;;;63.13;9.20;;;;;;;;;;6225550;28;20180;-80
2022/03/16 05:59:53;;;;;;;66.47;10.30;;;;;;;;;;6249524;28;20133;-81
2022/03/16 06:02:55;;;;;;;62.80;10.75;;;;;;;;;;6264572;28;20496;-80
2022/03/16 06:05:58;;;;;;;79.65;10.75;;;;;;;;;;6224700;28;20061;-82
2022/03/16 06:09:00;;;;;;;34.85;9.02;;;;;;;;;;6222653;28;20129;-81
2022/03/16 06:12:03;;;;;;;48.22;9.60;;;;;;;;;;6223556;28;20061;-80
2022/03/16 06:15:05;;;;;;;34.10;8.20;;;;;;;;;;6224187;28;20060;-80
2022/03/16 06:18:07;;;;;;;34.58;8.40;;;;;;;;;;6225378;28;20119;-81
2022/03/16 06:21:08;;;;;;;34.30;7.65;;;;;;;;;;6238321;28;20065;-79
2022/03/16 06:24:11;;;;;;;43.28;9.10;;;;;;;;;;6220133;28;20133;-80
2022/03/16 06:27:13;;;;;;;25.17;7.45;;;;;;;;;;6224290;28;20080;-80
2022/03/16 06:30:14;;;;;;;30.83;7.95;;;;;;;;;;6247627;28;20422;-81
2022/03/16 06:33:17;;;;;;;31.98;7.15;;;;;;;;;;6247464;28;20041;-81
2022/03/16 06:36:18;;;;;;;47.67;7.60;;;;;;;;;;6245680;28;20114;-81
2022/03/16 06:39:20;;;;;;;36.92;8.02;;;;;;;;;;6244541;28;20542;-80
2022/03/16 06:42:22;;;;;;;56.80;8.30;;;;;;;;;;6247464;28;20056;-80
2022/03/16 06:45:26;;;;;;;49.55;8.00;;;;;;;;;;6247005;28;20115;-81
2022/03/16 06:48:28;;;;;;;57.53;8.25;;;;;;;;;;6221778;28;20060;-80
2022/03/16 06:51:30;;;;;;;30.17;8.30;;;;;;;;;;6228766;28;20065;-83
2022/03/16 06:54:31;;;;;;;65.72;10.45;;;;;;;;;;6247612;28;20115;-82
2022/03/16 06:57:34;;;;;;;34.17;10.23;;;;;;;;;;6237784;28;20057;-81
2022/03/16 07:00:36;;;;;;;34.42;10.02;;;;;;;;;;6220345;28;20134;-80
2022/03/16 07:03:38;;;;;;;69.53;11.63;;;;;;;;;;6220501;28;20451;-80
2022/03/16 07:06:39;;;;;;;55.00;16.10;;;;;;;;;;6230212;28;20042;-83
2022/03/16 07:09:41;;;;;;;41.00;10.07;;;;;;;;;;6219627;28;20124;-82
2022/03/16 07:12:43;;;;;;;28.77;11.43;;;;;;;;;;6218426;28;20120;-80
2022/03/16 07:15:45;;;;;;;29.75;12.55;;;;;;;;;;6220030;28;20144;-79
2022/03/16 07:18:46;;;;;;;34.65;12.18;;;;;;;;;;6229565;28;20136;-81
2022/03/16 07:21:48;;;;;;;31.25;12.65;;;;;;;;;;6220406;28;20123;-80
2022/03/16 07:24:50;;;;;;;38.65;14.82;;;;;;;;;;6219315;28;20176;-79
2022/03/16 07:27:51;;;;;;;29.02;10.70;;;;;;;;;;6238029;28;20129;-80
2022/03/16 07:30:53;;;;;;;27.17;10.95;;;;;;;;;;6236219;28;20084;-80
2022/03/16 07:33:55;;;;;;;27.67;10.35;;;;;;;;;;6237412;28;20552;-80
2022/03/16 07:36:56;;;;;;;35.40;10.65;;;;;;;;;;6237556;28;20251;-80
2022/03/16 07:39:58;;;;;;;30.85;12.50;;;;;;;;;;6220961;28;20128;-81
2022/03/16 07:43:08;;;;;;;29.05;11.40;;;;;;;;;;6231695;28;20052;-83
2022/03/16 07:46:09;;;;;;;33.33;15.38;;;;;;;;;;6223369;28;20157;-79
2022/03/16 07:49:11;;;;;;;27.67;12.18;;;;;;;;;;6224304;28;20042;-81
2022/03/16 07:52:13;;;;;;;23.98;10.30;;;;;;;;;;6223229;28;20658;-82
2022/03/16 07:55:15;;;;;;;26.13;11.20;;;;;;;;;;6225273;28;20056;-81
2022/03/16 07:58:17;;;;;;;24.02;11.27;;;;;;;;;;6221536;28;20132;-79
2022/03/16 08:01:18;;;;;;;27.52;11.52;;;;;;;;;;6224440;28;20065;-80
2022/03/16 08:04:20;;;;;;;27.45;11.48;;;;;;;;;;6226924;28;20503;-79
2022/03/16 08:07:22;;;;;;;25.25;10.68;;;;;;;;;;6227667;28;20603;-82
2022/03/16 08:10:24;;;;;;;27.02;11.77;;;;;;;;;;6224733;28;20046;-82
2022/03/16 08:13:25;;;;;;;26.50;13.60;;;;;;;;;;6238696;28;20064;-81
2022/03/16 08:16:27;;;;;;;25.45;13.13;;;;;;;;;;6251448;28;20045;-78
2022/03/16 08:19:29;;;;;;;36.15;20.20;;;;;;;;;;6251617;28;20449;-79
2022/03/16 08:22:33;;;;;;;23.80;11.05;;;;;;;;;;6240596;28;20052;-80
2022/03/16 08:25:34;;;;;;;30.42;19.58;;;;;;;;;;6225050;28;20537;-82
2022/03/16 08:28:36;;;;;;;34.78;20.15;;;;;;;;;;6226462;28;20093;-80
2022/03/16 08:31:37;;;;;;;28.60;16.33;;;;;;;;;;6224080;28;20038;-81
2022/03/16 08:34:39;;;;;;;24.65;11.60;;;;;;;;;;6227244;28;20046;-80
2022/03/16 08:37:41;;;;;;;20.23;9.80;;;;;;;;;;6227668;28;20056;-84
2022/03/16 08:40:43;;;;;;;20.02;9.57;;;;;;;;;;6224996;28;20121;-80
2022/03/16 08:43:45;;;;;;;18.52;9.65;;;;;;;;;;6226853;28;20049;-80
2022/03/16 08:46:46;;;;;;;17.73;9.43;;;;;;;;;;6238198;28;20071;-82
2022/03/16 08:49:53;;;;;;;16.92;8.60;;;;;;;;;;6227477;28;20053;-80
2022/03/16 08:52:56;;;;;;;16.67;9.02;;;;;;;;;;6243882;28;20498;-83
2022/03/16 08:55:58;;;;;;;17.20;9.07;;;;;;;;;;6249706;28;20045;-82
2022/03/16 08:59:00;;;;;;;18.48;9.23;;;;;;;;;;6250288;28;20117;-84
2022/03/16 09:02:04;;;;;;;16.02;8.93;;;;;;;;;;6247486;28;20037;-80
2022/03/16 09:05:06;;;;;;;19.10;9.68;;;;;;;;;;6251817;28;20041;-82
2022/03/16 09:08:09;;;;;;;17.35;9.07;;;;;;;;;;6233368;28;20415;-84
2022/03/16 09:11:10;;;;;;;18.98;8.82;;;;;;;;;;6227413;28;20042;-81
2022/03/16 09:14:12;;;;;;;14.68;8.27;;;;;;;;;;6218960;28;20097;-81
2022/03/16 09:17:17;;;;;;;20.58;13.88;;;;;;;;;;6219957;28;20112;-81
2022/03/16 09:20:19;;;;;;;16.50;9.48;;;;;;;;;;6219542;28;20415;-81
2022/03/16 09:23:21;;;;;;;22.02;16.50;;;;;;;;;;6223627;28;20136;-81
2022/03/16 09:26:23;;;;;;;15.73;8.32;;;;;;;;;;6233088;28;20080;-81
2022/03/16 09:29:24;;;;;;;18.80;9.45;;;;;;;;;;6233714;28;20528;-79
2022/03/16 09:32:27;;;;;;;12.95;8.18;;;;;;;;;;6218270;28;20133;-82
2022/03/16 09:35:30;;;;;;;16.83;9.25;;;;;;;;;;6223118;28;20098;-80
2022/03/16 09:38:32;;;;;;;14.52;10.10;;;;;;;;;;6230060;28;20096;-81
2022/03/16 09:41:33;;;;;;;17.33;9.65;;;;;;;;;;6233622;28;20191;-81
2022/03/16 09:44:38;;;;;;;14.52;8.45;;;;;;;;;;6229735;28;20047;-80
2022/03/16 09:47:40;;;;;;;14.80;8.15;;;;;;;;;;6235680;28;20049;-80
2022/03/16 09:50:42;;;;;;;16.15;8.93;;;;;;;;;;6225423;28;20821;-82
2022/03/16 09:53:44;;;;;;;16.20;9.10;;;;;;;;;;6227312;28;20123;-80
2022/03/16 09:56:47;;;;;;;19.30;9.85;;;;;;;;;;6231348;28;20057;-82
2022/03/16 09:59:49;;;;;;;18.88;9.90;;;;;;;;;;6230435;28;20204;-82
2022/03/16 10:02:54;;;;;;;19.08;9.57;;;;;;;;;;6228861;28;20045;-82
2022/03/16 10:05:57;;;;;;;18.77;9.40;;;;;;;;;;6223494;28;20061;-82
2022/03/16 10:16:10;;;;;;;17.83;8.75;;;;;;;;;;6218375;28;20115;-80
2022/03/16 10:19:11;;;;;;;16.67;9.83;;;;;;;;;;6221677;28;20046;-79
2022/03/16 10:22:23;;;;;;;18.98;9.50;;;;;;;;;;6208241;28;20920;-79
2022/03/16 10:25:26;;;;;;;20.02;10.50;;;;;;;;;;6218668;28;20048;-79
2022/03/16 10:28:30;;;;;;;18.48;10.20;;;;;;;;;;6233734;28;20092;-79
2022/03/16 10:31:32;;;;;;;18.83;9.75;;;;;;;;;;6243610;28;20510;-79
2022/03/16 10:34:33;;;;;;;19.35;10.43;;;;;;;;;;6245476;28;20281;-79
2022/03/16 10:37:37;;;;;;;17.98;9.73;;;;;;;;;;6235570;28;20053;-79
2022/03/16 10:40:38;;;;;;;18.27;9.50;;;;;;;;;;6224187;28;20123;-79
2022/03/16 10:47:15;;;;;;;17.90;9.93;;;;;;;;;;6203386;28;20053;-79
2022/03/16 10:50:17;;;;;;;18.13;9.63;;;;;;;;;;6242946;28;20048;-77
2022/03/16 10:53:21;;;;;;;17.80;10.07;;;;;;;;;;6240769;28;20195;-78
2022/03/16 10:56:24;;;;;;;17.60;9.43;;;;;;;;;;6244590;28;20065;-78
2022/03/16 10:59:29;;;;;;;17.90;9.57;;;;;;;;;;6229916;28;20091;-79
2022/03/16 11:02:34;;;;;;;16.95;10.13;;;;;;;;;;6235229;28;20457;-79
2022/03/16 11:05:37;;;;;;;18.45;10.07;;;;;;;;;;6227075;28;20053;-79
2022/03/16 11:08:40;;;;;;;19.92;10.73;;;;;;;;;;6244416;28;20083;-79
2022/03/16 11:15:04;;;;;;;18.55;10.55;;;;;;;;;;6219300;28;20444;-79
2022/03/16 11:18:07;;;;;;;19.13;9.98;;;;;;;;;;6221398;28;20038;-79
2022/03/16 11:21:13;;;;;;;19.42;10.65;;;;;;;;;;6218938;28;20579;-78
2022/03/16 11:24:22;;;;;;;17.92;9.95;;;;;;;;;;6219104;28;20045;-80
2022/03/16 11:27:49;;;;;;;18.98;10.40;;;;;;;;;;6218871;28;20045;-79
2022/03/16 11:30:53;;;;;;;19.75;10.40;;;;;;;;;;6215961;28;20486;-79
2022/03/16 11:33:58;;;;;;;18.77;10.35;;;;;;;;;;6217645;28;20048;-79
2022/03/16 11:37:03;;;;;;;21.20;10.57;;;;;;;;;;6236966;28;20096;-78
2022/03/16 11:40:17;;;;;;;18.90;10.35;;;;;;;;;;6244024;28;20049;-79
2022/03/16 11:43:25;;;;;;;19.20;10.50;;;;;;;;;;6243214;28;20049;-79
2022/03/16 11:46:29;;;;;;;17.95;10.15;;;;;;;;;;6242046;28;20100;-79
2022/03/16 11:49:31;;;;;;;19.48;10.48;;;;;;;;;;6218827;28;20050;-79
2022/03/16 11:53:00;;;;;;;19.05;10.73;;;;;;;;;;6228977;28;20053;-79
2022/03/16 11:56:21;;;;;;;16.85;9.70;;;;;;;;;;6239749;28;20041;-79
2022/03/16 11:59:23;;;;;;;15.60;9.52;;;;;;;;;;6221560;28;20045;-80
2022/03/16 12:02:27;;;;;;;17.48;9.80;;;;;;;;;;6215280;28;20603;-80
2022/03/16 12:05:58;;;;;;;20.20;10.80;;;;;;;;;;6215856;28;20046;-80
2022/03/16 12:09:02;;;;;;;17.42;10.43;;;;;;;;;;6215095;28;20054;-79
2022/03/16 12:15:37;;;;;;;18.23;10.80;;;;;;;;;;6220456;28;20553;-80
2022/03/16 12:18:40;;;;;;;17.95;10.63;;;;;;;;;;6233209;28;20065;-80
2022/03/16 12:21:45;;;;;;;21.45;10.77;;;;;;;;;;6228384;28;20041;-80
2022/03/16 12:31:35;;;;;;;19.50;10.38;;;;;;;;;;6219477;28;20103;-79
2022/03/16 12:34:38;;;;;;;15.60;10.05;;;;;;;;;;6221344;28;20121;-80
2022/03/16 12:37:50;;;;;;;17.40;9.75;;;;;;;;;;6216426;28;20065;-79
2022/03/16 12:44:14;;;;;;;15.38;9.50;;;;;;;;;;6225816;28;20624;-79
2022/03/16 12:47:25;;;;;;;17.40;9.80;;;;;;;;;;6228256;28;20045;-79
2022/03/16 12:50:27;;;;;;;16.92;9.60;;;;;;;;;;6226520;28;20453;-79
2022/03/16 12:53:44;;;;;;;13.98;9.30;;;;;;;;;;6221812;28;20637;-79
2022/03/16 12:56:51;;;;;;;16.08;9.63;;;;;;;;;;6230241;28;20550;-79
2022/03/16 12:59:53;;;;;;;15.82;9.43;;;;;;;;;;6247505;28;20075;-79
2022/03/16 13:03:11;;;;;;;18.83;11.02;;;;;;;;;;6227060;28;20052;-80
2022/03/16 13:06:18;;;;;;;16.05;10.13;;;;;;;;;;6236566;28;20056;-80
2022/03/16 13:09:20;;;;;;;17.77;10.13;;;;;;;;;;6237444;28;20056;-81
2022/03/16 13:12:24;;;;;;;17.25;10.15;;;;;;;;;;6239874;28;20116;-78
2022/03/16 13:15:25;;;;;;;15.65;10.23;;;;;;;;;;6218318;28;20088;-78
2022/03/16 13:18:31;;;;;;;16.08;10.38;;;;;;;;;;6218785;28;20760;-80
2022/03/16 13:21:35;;;;;;;16.08;10.18;;;;;;;;;;6218432;28;20298;-79
2022/03/16 13:24:58;;;;;;;15.40;9.55;;;;;;;;;;6245068;28;20634;-79
2022/03/16 13:28:00;;;;;;;15.80;9.57;;;;;;;;;;6237017;28;20401;-81
2022/03/16 13:31:02;;;;;;;14.90;9.85;;;;;;;;;;6221771;28;20049;-82
2022/03/16 13:34:05;;;;;;;17.75;10.20;;;;;;;;;;6203698;28;20100;-81
2022/03/16 13:37:19;;;;;;;;;;;;;;;;;;6236082;28;20057;-81
2022/03/16 13:40:35;;;;;;;15.07;9.77;;;;;;;;;;6245227;28;20004;-79
2022/03/16 13:43:41;;;;;;;15.93;9.27;;;;;;;;;;6244546;28;20044;-81
2022/03/16 13:46:45;;;;;;;16.30;9.38;;;;;;;;;;6232859;28;20061;-79
2022/03/16 13:49:49;;;;;;;14.68;9.60;;;;;;;;;;6242530;28;20148;-80
2022/03/16 13:52:55;;;;;;;15.15;9.70;;;;;;;;;;6242467;28;20453;-81
2022/03/16 13:56:11;;;;;;;15.20;9.75;;;;;;;;;;6242533;28;20129;-80
2022/03/16 13:59:14;;;;;;;16.92;9.70;;;;;;;;;;6224517;28;20101;-80
2022/03/16 14:02:22;;;;;;;16.30;9.73;;;;;;;;;;6219885;28;20046;-81
2022/03/16 14:05:24;;;;;;;19.77;9.70;;;;;;;;;;6222352;28;20050;-82
2022/03/16 14:08:26;;;;;;;16.58;9.63;;;;;;;;;;6241870;28;20096;-81
2022/03/16 14:11:32;;;;;;;15.88;9.23;;;;;;;;;;6243890;28;20653;-79
2022/03/16 14:14:34;;;;;;;16.85;10.25;;;;;;;;;;6224914;28;20116;-80
2022/03/16 14:18:06;;;;;;;17.35;9.95;;;;;;;;;;6219648;28;20085;-80
2022/03/16 14:21:08;;;;;;;16.35;9.57;;;;;;;;;;6219331;28;20038;-80
2022/03/16 14:24:09;;;;;;;17.48;9.50;;;;;;;;;;6218849;28;20052;-80
2022/03/16 14:27:19;;;;;;;18.25;9.57;;;;;;;;;;6219633;28;20667;-81
2022/03/16 14:30:23;;;;;;;17.10;9.82;;;;;;;;;;6217946;28;20038;-80
2022/03/16 14:33:29;;;;;;;20.02;10.57;;;;;;;;;;6216833;28;20041;-78
2022/03/16 14:36:34;;;;;;;17.30;10.27;;;;;;;;;;6240281;28;20136;-80
2022/03/16 14:39:54;;;;;;;18.25;10.35;;;;;;;;;;6256920;28;20398;-81
2022/03/16 14:42:58;;;;;;;17.35;10.18;;;;;;;;;;6236923;28;20088;-81
2022/03/16 14:46:00;;;;;;;18.67;10.52;;;;;;;;;;6220852;28;20189;-81
2022/03/16 14:49:02;;;;;;;18.85;10.25;;;;;;;;;;6220902;28;20073;-81
2022/03/16 14:52:05;;;;;;;17.00;10.13;;;;;;;;;;6218070;28;20048;-81
2022/03/16 14:55:07;;;;;;;;;;;;;;;;;;6235265;28;20073;-80
2022/03/16 14:58:08;;;;;;;17.75;10.13;;;;;;;;;;6227318;28;20055;-81
2022/03/16 15:01:10;;;;;;;17.63;9.75;;;;;;;;;;6244228;28;20213;-81
2022/03/16 15:04:12;;;;;;;22.23;10.50;;;;;;;;;;6235632;28;20042;-81
2022/03/16 15:07:14;;;;;;;17.73;9.68;;;;;;;;;;6219887;28;20045;-81
2022/03/16 15:10:18;;;;;;;19.08;10.45;;;;;;;;;;6243614;28;20052;-81
2022/03/16 15:13:26;;;;;;;16.05;9.75;;;;;;;;;;6229981;28;20050;-80
2022/03/16 15:16:28;;;;;;;15.82;9.55;;;;;;;;;;6220784;28;20231;-80
2022/03/16 15:19:30;;;;;;;15.75;9.80;;;;;;;;;;6218958;28;20050;-80
2022/03/16 15:22:32;;;;;;;16.55;8.85;;;;;;;;;;6219273;28;20048;-80
2022/03/16 15:25:33;;;;;;;17.20;9.35;;;;;;;;;;6219977;28;20050;-81
2022/03/16 15:28:35;;;;;;;15.23;8.80;;;;;;;;;;6224039;28;20070;-82
2022/03/16 15:31:37;;;;;;;19.10;9.68;;;;;;;;;;6215545;28;20128;-82
2022/03/16 15:34:44;;;;;;;17.00;10.32;;;;;;;;;;6217423;28;20049;-82
2022/03/16 15:37:45;;;;;;;17.35;9.98;;;;;;;;;;6218293;28;20082;-82
2022/03/16 15:44:07;;;;;;;20.02;10.40;;;;;;;;;;6216903;28;20050;-80
2022/03/16 15:47:09;;;;;;;19.17;9.75;;;;;;;;;;6219756;28;20582;-80
2022/03/16 15:50:13;;;;;;;16.40;10.00;;;;;;;;;;6243155;28;20598;-78
2022/03/16 15:53:14;;;;;;;;;;;;;;;;;;6224950;28;20058;-80
2022/03/16 15:56:16;;;;;;;17.95;9.60;;;;;;;;;;6219680;28;19922;-78
2022/03/16 15:59:18;;;;;;;22.17;9.88;;;;;;;;;;6219663;28;20042;-80
2022/03/16 16:02:20;;;;;;;20.65;10.02;;;;;;;;;;6225906;28;20129;-80
2022/03/16 16:05:21;;;;;;;19.45;10.85;;;;;;;;;;6242579;28;20069;-80
2022/03/16 16:08:23;;;;;;;16.33;9.68;;;;;;;;;;6232748;28;20497;-79
2022/03/16 16:11:26;;;;;;;17.98;10.35;;;;;;;;;;6226744;28;20116;-79
2022/03/16 16:14:27;;;;;;;19.95;10.32;;;;;;;;;;6239804;28;20152;-80
2022/03/16 16:17:29;;;;;;;18.90;10.27;;;;;;;;;;6217338;28;20626;-81
2022/03/16 16:20:31;;;;;;;16.85;10.23;;;;;;;;;;6213519;28;20043;-80
2022/03/16 16:23:34;;;;;;;24.48;13.38;;;;;;;;;;6225686;28;20055;-81
2022/03/16 16:26:38;;;;;;;18.80;10.55;;;;;;;;;;6236284;28;20543;-81
2022/03/16 16:29:46;;;;;;;18.92;10.50;;;;;;;;;;6236027;28;20049;-79
2022/03/16 16:32:50;;;;;;;18.13;10.10;;;;;;;;;;6216721;28;20140;-81
2022/03/16 16:35:51;;;;;;;18.38;10.05;;;;;;;;;;6232442;28;20049;-80
2022/03/16 16:38:57;;;;;;;20.75;11.10;;;;;;;;;;6237850;28;20561;-79
2022/03/16 16:43:10;;;;;;;18.40;9.77;;;;;;;;;;6266878;28;20080;-80
2022/03/16 16:45:20;;;;;;;17.90;9.70;;;;;;;;;;6245327;28;20287;-80
2022/03/16 16:48:26;;;;;;;15.23;9.60;;;;;;;;;;6247369;28;20091;-79
2022/03/16 16:51:31;;;;;;;18.20;10.00;;;;;;;;;;6246123;28;20105;-81
2022/03/16 16:54:32;;;;;;;15.57;9.30;;;;;;;;;;6248568;28;20111;-80
2022/03/16 16:57:37;;;;;;;15.60;9.40;;;;;;;;;;6239579;28;20076;-80
2022/03/16 17:00:39;;;;;;;17.25;9.95;;;;;;;;;;6220970;28;20108;-80
2022/03/16 17:03:41;;;;;;;15.48;9.73;;;;;;;;;;6225883;28;20045;-79
2022/03/16 17:06:44;;;;;;;16.63;10.60;;;;;;;;;;6242567;28;20114;-80
2022/03/16 17:09:46;;;;;;;16.38;10.27;;;;;;;;;;6220339;28;20148;-80
2022/03/16 17:12:48;;;;;;;16.88;10.30;;;;;;;;;;6241313;28;20282;-80
2022/03/16 17:15:52;;;;;;;18.08;10.90;;;;;;;;;;6246118;28;20464;-80
2022/03/16 17:18:55;;;;;;;18.40;10.40;;;;;;;;;;6245525;28;20101;-80
2022/03/16 17:21:59;;;;;;;19.13;10.32;;;;;;;;;;6227059;28;20564;-80
2022/03/16 17:25:03;;;;;;;17.63;10.55;;;;;;;;;;6220907;28;20424;-79
2022/03/16 17:28:07;;;;;;;17.52;10.63;;;;;;;;;;6223240;28;20065;-79
2022/03/16 17:31:09;;;;;;;16.52;9.48;;;;;;;;;;6221615;28;20061;-79
2022/03/16 17:34:11;;;;;;;18.48;10.48;;;;;;;;;;6219589;28;20411;-81
2022/03/16 17:37:13;;;;;;;16.20;9.60;;;;;;;;;;6217791;28;20768;-79
2022/03/16 17:40:17;;;;;;;19.27;10.93;;;;;;;;;;6214541;28;20050;-79
2022/03/16 17:46:38;;;;;;;22.60;10.40;;;;;;;;;;6234854;28;20007;-79
2022/03/16 17:49:40;;;;;;;21.10;11.93;;;;;;;;;;6242823;28;20041;-79
2022/03/16 17:52:42;;;;;;;22.25;11.77;;;;;;;;;;6219860;28;20113;-79
2022/03/16 17:59:08;;;;;;;26.33;14.07;;;;;;;;;;6220152;28;20116;-80
2022/03/16 18:02:09;;;;;;;26.35;13.50;;;;;;;;;;6218341;28;20121;-80
2022/03/16 18:05:11;;;;;;;22.58;11.10;;;;;;;;;;6217981;28;20045;-80
2022/03/16 18:08:15;;;;;;;18.25;11.00;;;;;;;;;;6218842;28;20077;-80
2022/03/16 18:14:37;;;;;;;19.83;12.02;;;;;;;;;;6218662;28;20585;-80
2022/03/16 18:17:39;;;;;;;20.20;11.52;;;;;;;;;;6219800;28;20634;-81
2022/03/16 18:20:40;;;;;;;20.63;11.02;;;;;;;;;;6218007;28;20313;-80
2022/03/16 18:23:44;;;;;;;20.50;11.30;;;;;;;;;;6237762;28;20057;-80
2022/03/16 18:26:46;;;;;;;20.98;11.32;;;;;;;;;;6243704;28;20049;-81
2022/03/16 18:29:48;;;;;;;22.70;12.13;;;;;;;;;;6243137;28;20065;-82
2022/03/16 18:32:50;;;;;;;21.38;11.25;;;;;;;;;;6243356;28;20124;-82
2022/03/16 18:35:52;;;;;;;24.15;12.57;;;;;;;;;;6243124;28;20187;-81
2022/03/16 18:38:55;;;;;;;23.00;12.25;;;;;;;;;;6227100;28;20131;-81